createdAt,value
2023-05-09T00:02:46.248Z,99836.75
2023-05-09T00:05:42.177Z,99827.25
2023-05-09T00:08:41.890Z,99824.06
2023-05-09T00:11:47.988Z,99811.03
2023-05-09T00:14:47.912Z,99814.69
2023-05-09T00:17:58.581Z,99820.94
2023-05-09T00:20:47.764Z,99806.34
2023-05-09T00:24:03.449Z,99799.56
2023-05-09T00:27:11.873Z,99816.25
2023-05-09T00:30:10.216Z,99808.22
2023-05-09T00:33:00.506Z,99806.34
2023-05-09T00:35:50.495Z,99807.06
2023-05-09T00:38:49.505Z,99802.72
2023-05-09T00:41:46.402Z,99802.59
2023-05-09T00:44:44.951Z,99789.56
2023-05-09T00:47:39.933Z,99784.56
2023-05-09T00:50:38.613Z,99787.19
2023-05-09T00:53:36.137Z,99778.41
2023-05-09T00:56:27.163Z,99773.22
2023-05-09T00:59:17.790Z,99782.06
2023-05-09T01:02:32.316Z,99778.53
2023-05-09T01:05:42.488Z,99779.38
2023-05-09T01:08:57.953Z,99779.28
2023-05-09T01:12:15.978Z,99776.53
2023-05-09T01:15:19.416Z,99777.06
2023-05-09T01:18:23.609Z,99770.09
2023-05-09T01:21:22.334Z,99768.31
2023-05-09T01:25:02.872Z,99771.97
2023-05-09T01:28:20.349Z,99760.91
2023-05-09T01:31:30.683Z,99757.38
2023-05-09T01:34:24.745Z,99746.97
2023-05-09T01:37:17.856Z,99754.88
2023-05-09T01:40:18.906Z,99751.13
2023-05-09T01:43:17.311Z,99756.22
2023-05-09T01:46:33.918Z,99757.78
2023-05-09T01:49:32.243Z,99740.28
2023-05-09T01:52:35.825Z,99745.69
2023-05-09T01:55:47.332Z,99741.84
2023-05-09T01:58:45.753Z,99738.03
2023-05-09T02:01:47.367Z,99744.47
2023-05-09T02:04:52.567Z,99738.66
2023-05-09T02:07:46.755Z,99740.63
2023-05-09T02:10:42.185Z,99740.13
2023-05-09T02:13:34.782Z,99731.69
2023-05-09T02:16:28.416Z,99730.38
2023-05-09T02:19:39.238Z,99736.91
2023-05-09T02:22:38.730Z,99737.22
2023-05-09T02:25:48.372Z,99741.28
2023-05-09T02:28:55.876Z,99729.81
2023-05-09T02:32:15.944Z,99728.47
2023-05-09T02:35:11.704Z,99729.00
2023-05-09T02:38:14.031Z,99722.84
2023-05-09T02:41:19.259Z,99719.28
2023-05-09T02:44:09.852Z,99724.72
2023-05-09T02:47:18.667Z,99707.84
2023-05-09T02:50:19.972Z,99726.75
2023-05-09T02:53:11.804Z,99717.16
2023-05-09T02:56:11.296Z,99724.50
2023-05-09T02:59:01.651Z,99724.00
2023-05-09T03:02:09.017Z,99724.81
2023-05-09T03:04:58.305Z,99720.66
2023-05-09T03:07:59.136Z,99717.13
2023-05-09T03:11:12.139Z,99708.78
2023-05-09T03:14:03.397Z,99713.53
2023-05-09T03:17:00.720Z,99711.50
2023-05-09T03:19:59.601Z,99707.44
2023-05-09T03:23:05.130Z,99705.13
2023-05-09T03:26:12.304Z,99700.06
2023-05-09T03:29:06.108Z,99689.69
2023-05-09T03:32:04.439Z,99695.59
2023-05-09T03:34:55.204Z,99698.91
2023-05-09T03:38:24.051Z,99698.28
2023-05-09T03:41:31.427Z,99684.47
2023-05-09T03:44:30.849Z,99684.34
2023-05-09T03:47:38.181Z,99679.16
2023-05-09T03:50:44.962Z,99681.75
2023-05-09T03:54:02.230Z,99680.84
2023-05-09T03:57:15.973Z,99680.84
2023-05-09T04:00:16.984Z,99680.03
2023-05-09T04:03:24.461Z,99684.34
2023-05-09T04:06:14.759Z,99676.56
2023-05-09T04:09:30.324Z,99689.38
2023-05-09T04:12:41.082Z,99691.03
2023-05-09T04:15:30.587Z,99688.25
2023-05-09T04:18:31.816Z,99684.41
2023-05-09T04:21:23.206Z,99687.56
2023-05-09T04:24:25.772Z,99694.66
2023-05-09T04:27:29.558Z,99690.53
2023-05-09T04:30:27.907Z,99679.53
2023-05-09T04:33:19.371Z,99683.28
2023-05-09T04:36:18.257Z,99685.38
2023-05-09T04:39:33.033Z,99681.41
2023-05-09T04:42:40.103Z,99674.25
2023-05-09T04:45:41.561Z,99680.59
2023-05-09T04:48:53.744Z,99682.06
2023-05-09T04:51:45.846Z,99672.16
2023-05-09T04:54:39.770Z,99676.00
2023-05-09T04:57:32.492Z,99659.06
2023-05-09T05:00:34.662Z,99663.81
2023-05-09T05:03:40.123Z,99661.78
2023-05-09T05:06:30.853Z,99658.75
2023-05-09T05:09:32.894Z,99660.00
2023-05-09T05:12:43.432Z,99656.03
2023-05-09T05:15:37.334Z,99651.81
2023-05-09T05:18:46.826Z,99639.81
2023-05-09T05:21:53.332Z,99642.72
2023-05-09T05:24:44.564Z,99643.22
2023-05-09T05:27:34.286Z,99652.25
2023-05-09T05:30:35.883Z,99653.44
2023-05-09T05:33:27.225Z,99641.78
2023-05-09T05:36:18.321Z,99635.16
2023-05-09T05:39:15.130Z,99631.28
2023-05-09T05:42:17.403Z,99640.13
2023-05-09T05:45:09.958Z,99633.16
2023-05-09T05:48:21.604Z,99635.31
2023-05-09T05:51:14.873Z,99636.41
2023-05-09T05:54:13.443Z,99636.22
2023-05-09T05:57:18.598Z,99635.63
2023-05-09T06:00:15.071Z,99633.28
2023-05-09T06:03:23.390Z,99622.00
2023-05-09T06:06:31.517Z,99615.25
2023-05-09T06:09:34.755Z,99617.06
2023-05-09T06:12:35.563Z,99616.38
2023-05-09T06:15:40.730Z,99613.03
2023-05-09T06:18:41.823Z,99614.25
2023-05-09T06:21:41.305Z,99608.66
2023-05-09T06:24:35.906Z,99609.00
2023-05-09T06:27:36.111Z,99606.59
2023-05-09T06:30:41.283Z,99607.09
2023-05-09T06:33:48.205Z,99604.44
2023-05-09T06:36:37.681Z,99605.13
2023-05-09T06:39:36.666Z,99600.59
2023-05-09T06:42:40.836Z,99594.63
2023-05-09T06:45:32.110Z,99582.50
2023-05-09T06:48:39.094Z,99592.09
2023-05-09T06:51:48.392Z,99585.88
2023-05-09T06:54:42.561Z,99588.53
2023-05-09T06:57:33.171Z,99578.84
2023-05-09T07:00:24.550Z,99578.22
2023-05-09T07:03:30.883Z,99577.31
2023-05-09T07:06:29.425Z,99574.50
2023-05-09T07:09:41.892Z,99572.25
2023-05-09T07:12:34.415Z,99565.03
2023-05-09T07:15:41.152Z,99560.09
2023-05-09T07:18:42.216Z,99554.06
2023-05-09T07:21:30.951Z,99552.16
2023-05-09T07:24:40.463Z,99559.06
2023-05-09T07:27:33.589Z,99562.72
2023-05-09T07:30:29.392Z,99547.00
2023-05-09T07:33:28.076Z,99541.22
2023-05-09T07:36:33.131Z,99533.34
2023-05-09T07:39:41.276Z,99534.06
2023-05-09T07:42:52.282Z,99535.81
2023-05-09T07:45:47.203Z,99536.72
2023-05-09T07:48:38.536Z,99533.41
2023-05-09T07:51:29.291Z,99539.06
2023-05-09T07:54:25.861Z,99540.28
2023-05-09T07:57:24.917Z,99541.06
2023-05-09T08:00:26.907Z,99535.16
2023-05-09T08:03:26.385Z,99532.53
2023-05-09T08:06:36.814Z,99530.00
2023-05-09T08:09:31.889Z,99522.97
2023-05-09T08:12:40.147Z,99523.34
2023-05-09T08:15:47.401Z,99522.22
2023-05-09T08:18:39.749Z,99508.44
2023-05-09T08:21:36.927Z,99510.53
2023-05-09T08:24:37.327Z,99510.81
2023-05-09T08:27:28.680Z,99500.28
2023-05-09T08:30:26.912Z,99499.06
2023-05-09T08:33:40.518Z,99488.19
2023-05-09T08:36:36.848Z,99482.00
2023-05-09T08:39:28.387Z,99477.47
2023-05-09T08:42:26.828Z,99481.09
2023-05-09T08:45:33.642Z,99472.53
2023-05-09T08:48:49.023Z,99470.75
2023-05-09T08:51:39.949Z,99461.63
2023-05-09T08:54:31.009Z,99463.94
2023-05-09T08:57:20.530Z,99461.72
2023-05-09T09:00:21.387Z,99458.06
2023-05-09T09:03:17.265Z,99462.31
2023-05-09T09:06:26.336Z,99454.44
2023-05-09T09:09:33.226Z,99453.06
2023-05-09T09:12:26.473Z,99452.94
2023-05-09T09:15:22.050Z,99446.69
2023-05-09T09:18:27.135Z,99450.88
2023-05-09T09:21:27.132Z,99444.84
2023-05-09T09:24:29.888Z,99435.31
2023-05-09T09:27:35.955Z,99432.44
2023-05-09T09:30:36.377Z,99422.75
2023-05-09T09:33:38.230Z,99421.06
2023-05-09T09:36:37.127Z,99416.31
2023-05-09T09:39:33.631Z,99420.03
2023-05-09T09:42:44.801Z,99418.75
2023-05-09T09:45:53.244Z,99410.59
2023-05-09T09:48:55.581Z,99406.28
2023-05-09T09:52:06.805Z,99400.97
2023-05-09T09:55:02.697Z,99394.78
2023-05-09T09:57:59.059Z,99384.91
2023-05-09T10:00:48.134Z,99375.78
2023-05-09T10:03:54.977Z,99368.34
2023-05-09T10:06:57.388Z,99375.31
2023-05-09T10:10:07.824Z,99372.44
2023-05-09T10:13:01.141Z,99374.50
2023-05-09T10:16:00.693Z,99371.00
2023-05-09T10:18:51.332Z,99360.81
2023-05-09T10:21:43.173Z,99350.41
2023-05-09T10:24:49.770Z,99349.81
2023-05-09T10:28:14.738Z,99339.31
2023-05-09T10:31:14.365Z,99339.03
2023-05-09T10:34:21.559Z,99325.25
2023-05-09T10:37:13.037Z,99323.59
2023-05-09T10:40:15.522Z,99319.00
2023-05-09T10:43:13.265Z,99318.50
2023-05-09T10:46:17.768Z,99303.00
2023-05-09T10:49:08.709Z,99299.03
2023-05-09T10:52:06.466Z,99292.28
2023-05-09T10:55:06.278Z,99293.28
2023-05-09T10:58:40.920Z,99283.19
2023-05-09T11:01:39.230Z,99276.78
2023-05-09T11:04:28.986Z,99268.38
2023-05-09T11:07:37.662Z,99260.31
2023-05-09T11:10:48.080Z,99252.38
2023-05-09T11:13:51.180Z,99243.56
2023-05-09T11:17:01.302Z,99238.88
2023-05-09T11:20:07.868Z,99241.00
2023-05-09T11:23:17.639Z,99241.66
2023-05-09T11:26:11.628Z,99239.00
2023-05-09T11:29:15.453Z,99236.00
2023-05-09T11:32:13.825Z,99230.41
2023-05-09T11:35:37.546Z,99223.47
2023-05-09T11:38:26.780Z,99201.53
2023-05-09T11:41:22.205Z,99200.63
2023-05-09T11:44:32.268Z,99201.31
2023-05-09T11:47:32.345Z,99194.41
2023-05-09T11:50:30.433Z,99197.00
2023-05-09T11:53:37.945Z,99191.00
2023-05-09T11:56:35.267Z,99188.09
2023-05-09T11:59:41.728Z,99180.81
2023-05-09T12:02:39.178Z,99179.75
2023-05-09T12:05:28.708Z,99173.13
2023-05-09T12:08:28.981Z,99173.66
2023-05-09T12:11:24.329Z,99161.00
2023-05-09T12:14:42.330Z,99154.69
2023-05-09T12:17:40.976Z,99148.19
2023-05-09T12:20:47.510Z,99149.75
2023-05-09T12:23:38.560Z,99152.06
2023-05-09T12:26:35.484Z,99143.75
2023-05-09T12:29:48.704Z,99139.66
2023-05-09T12:32:41.111Z,99132.94
2023-05-09T12:35:41.016Z,99126.00
2023-05-09T12:38:42.070Z,99118.88
2023-05-09T12:41:39.199Z,99113.34
2023-05-09T12:45:00.302Z,99097.47
2023-05-09T12:48:01.879Z,99096.19
2023-05-09T12:50:54.398Z,99092.28
2023-05-09T12:53:44.562Z,99084.88
2023-05-09T12:56:41.735Z,99080.97
2023-05-09T12:59:41.748Z,99081.81
2023-05-09T13:02:57.634Z,99067.22
2023-05-09T13:05:58.731Z,99056.91
2023-05-09T13:09:00.866Z,99056.84
2023-05-09T13:11:51.548Z,99052.59
2023-05-09T13:14:58.508Z,99044.69
2023-05-09T13:18:24.005Z,99033.22
2023-05-09T13:21:15.552Z,99035.97
2023-05-09T13:24:05.173Z,99027.94
2023-05-09T13:27:11.362Z,99026.88
2023-05-09T13:30:08.040Z,99012.78
2023-05-09T13:33:26.970Z,99005.63
2023-05-09T13:36:19.960Z,99006.59
2023-05-09T13:39:25.139Z,99010.19
2023-05-09T13:42:19.027Z,99005.41
2023-05-09T13:45:15.193Z,99013.41
2023-05-09T13:48:18.866Z,99010.78
2023-05-09T13:51:27.779Z,99009.66
2023-05-09T13:54:35.471Z,99003.59
2023-05-09T13:57:46.983Z,98996.03
2023-05-09T14:00:50.185Z,98998.41
2023-05-09T14:03:54.524Z,98997.28
2023-05-09T14:06:59.048Z,98985.72
2023-05-09T14:10:11.006Z,98996.16
2023-05-09T14:13:06.658Z,98980.91
2023-05-09T14:15:56.265Z,98981.22
2023-05-09T14:18:54.016Z,98972.47
2023-05-09T14:21:43.905Z,98972.72
2023-05-09T14:24:41.646Z,98964.78
2023-05-09T14:27:39.808Z,98959.34
2023-05-09T14:30:57.717Z,98955.16
2023-05-09T14:33:55.229Z,98947.47
2023-05-09T14:37:01.260Z,98938.31
2023-05-09T14:39:53.812Z,98925.31
2023-05-09T14:42:42.580Z,98925.38
2023-05-09T14:45:51.345Z,98918.38
2023-05-09T14:48:40.694Z,98918.28
2023-05-09T14:51:51.702Z,98916.44
2023-05-09T14:54:42.818Z,98909.50
2023-05-09T14:57:50.265Z,98912.25
2023-05-09T15:00:53.841Z,98900.63
2023-05-09T15:03:49.650Z,98900.03
2023-05-09T15:07:01.462Z,98896.34
2023-05-09T15:10:15.602Z,98888.66
2023-05-09T15:13:31.940Z,98888.41
2023-05-09T15:16:21.619Z,98891.28
2023-05-09T15:19:14.959Z,98885.25
2023-05-09T15:22:34.119Z,98885.69
2023-05-09T15:25:30.405Z,98873.72
2023-05-09T15:28:35.682Z,98881.66
2023-05-09T15:31:26.690Z,98882.31
2023-05-09T15:34:24.692Z,98874.47
2023-05-09T15:37:35.781Z,98872.03
2023-05-09T15:40:42.624Z,98873.00
2023-05-09T15:43:40.460Z,98890.13
2023-05-09T15:46:33.736Z,98885.97
2023-05-09T15:49:32.129Z,98881.72
2023-05-09T15:52:36.080Z,98878.44
2023-05-09T15:55:28.694Z,98882.03
2023-05-09T15:58:18.193Z,98879.72
2023-05-09T16:01:28.330Z,98872.00
2023-05-09T16:04:22.696Z,98871.81
2023-05-09T16:07:15.322Z,98863.13
2023-05-09T16:10:22.292Z,98865.91
2023-05-09T16:13:12.798Z,98853.09
2023-05-09T16:16:10.833Z,98858.00
2023-05-09T16:19:10.158Z,98849.47
2023-05-09T16:22:05.840Z,98843.56
2023-05-09T16:24:57.301Z,98848.44
2023-05-09T16:27:51.089Z,98847.28
2023-05-09T16:30:40.371Z,98847.41
2023-05-09T16:33:30.529Z,98847.41
2023-05-09T16:36:38.107Z,98845.28
2023-05-09T16:39:33.042Z,98834.97
2023-05-09T16:42:42.910Z,98831.00
2023-05-09T16:45:53.261Z,98818.72
2023-05-09T16:48:59.242Z,98816.59
2023-05-09T16:51:55.097Z,98816.91
2023-05-09T16:54:56.281Z,98825.91
2023-05-09T16:58:04.154Z,98813.75
2023-05-09T17:01:00.710Z,98809.81
2023-05-09T17:03:51.005Z,98806.66
2023-05-09T17:06:44.474Z,98810.91
2023-05-09T17:09:49.055Z,98814.16
2023-05-09T17:12:56.934Z,98816.94
2023-05-09T17:15:55.121Z,98808.03
2023-05-09T17:18:55.997Z,98804.75
2023-05-09T17:21:50.044Z,98801.75
2023-05-09T17:24:47.518Z,98811.84
2023-05-09T17:27:36.980Z,98807.31
2023-05-09T17:30:37.740Z,98816.31
2023-05-09T17:33:43.642Z,98816.31
2023-05-09T17:36:47.324Z,98812.75
2023-05-09T17:39:42.859Z,98815.34
2023-05-09T17:42:33.704Z,98814.22
2023-05-09T17:45:39.721Z,98821.44
2023-05-09T17:48:30.172Z,98822.97
2023-05-09T17:51:33.245Z,98822.63
2023-05-09T17:54:54.726Z,98821.31
2023-05-09T17:57:55.468Z,98820.81
2023-05-09T18:00:48.356Z,98822.22
2023-05-09T18:03:58.265Z,98834.34
2023-05-09T18:06:51.974Z,98842.38
2023-05-09T18:09:51.904Z,98837.84
2023-05-09T18:12:58.163Z,98834.09
2023-05-09T18:16:08.209Z,98830.34
2023-05-09T18:19:01.007Z,98840.72
2023-05-09T18:22:23.732Z,98840.88
2023-05-09T18:25:27.968Z,98831.84
2023-05-09T18:28:40.194Z,98834.91
2023-05-09T18:31:39.246Z,98832.41
2023-05-09T18:34:34.143Z,98831.75
2023-05-09T18:37:25.195Z,98833.38
2023-05-09T18:40:37.564Z,98846.44
2023-05-09T18:43:29.386Z,98859.97
2023-05-09T18:46:28.119Z,98857.03
2023-05-09T18:49:20.679Z,98850.06
2023-05-09T18:52:19.324Z,98857.69
2023-05-09T18:55:20.118Z,98854.72
2023-05-09T18:58:24.952Z,98858.88
2023-05-09T19:01:37.427Z,98868.09
2023-05-09T19:04:36.595Z,98864.91
2023-05-09T19:07:36.038Z,98860.53
2023-05-09T19:10:36.556Z,98860.53
2023-05-09T19:13:51.002Z,98855.72
2023-05-09T19:16:50.295Z,98862.47
2023-05-09T19:19:50.148Z,98861.31
2023-05-09T19:22:41.537Z,98852.53
2023-05-09T19:25:42.556Z,98853.94
2023-05-09T19:28:35.567Z,98864.53
2023-05-09T19:31:33.026Z,98863.28
2023-05-09T19:34:25.318Z,98861.63
2023-05-09T19:37:23.962Z,98864.53
2023-05-09T19:40:34.309Z,98862.88
2023-05-09T19:43:24.925Z,98859.03
2023-05-09T19:46:23.350Z,98856.09
2023-05-09T19:49:23.321Z,98863.25
2023-05-09T19:52:13.908Z,98865.16
2023-05-09T19:55:03.243Z,98862.28
2023-05-09T19:57:53.538Z,98859.44
2023-05-09T20:00:51.583Z,98861.06
2023-05-09T20:03:57.140Z,98862.75
2023-05-09T20:06:49.125Z,98861.63
2023-05-09T20:09:45.284Z,98859.84
2023-05-09T20:12:33.980Z,98862.16
2023-05-09T20:15:30.845Z,98863.28
2023-05-09T20:18:27.670Z,98868.25
2023-05-09T20:21:36.754Z,98863.56
2023-05-09T20:24:37.873Z,98864.53
2023-05-09T20:27:26.994Z,98868.78
2023-05-09T20:30:17.682Z,98864.78
2023-05-09T20:33:19.666Z,98865.06
2023-05-09T20:36:43.230Z,98863.44
2023-05-09T20:39:33.091Z,98859.97
2023-05-09T20:42:31.385Z,98853.94
2023-05-09T20:45:35.085Z,98854.22
2023-05-09T20:48:25.233Z,98864.66
2023-05-09T20:51:22.374Z,98861.47
2023-05-09T20:54:14.344Z,98851.16
2023-05-09T20:57:10.069Z,98856.22
2023-05-09T21:00:09.923Z,98857.91
2023-05-09T21:03:31.620Z,98859.66
2023-05-09T21:06:30.710Z,98853.75
2023-05-09T21:09:46.377Z,98856.22
2023-05-09T21:12:44.927Z,98856.38
2023-05-09T21:15:33.750Z,98856.66
2023-05-09T21:18:42.292Z,98848.13
2023-05-09T21:21:33.432Z,98851.72
2023-05-09T21:24:44.197Z,98851.44
2023-05-09T21:27:45.617Z,98848.94
2023-05-09T21:30:34.815Z,98841.28
2023-05-09T21:33:34.838Z,98838.66
2023-05-09T21:36:23.826Z,98837.97
2023-05-09T21:39:24.501Z,98831.25
2023-05-09T21:42:38.494Z,98829.72
2023-05-09T21:45:38.228Z,98835.63
2023-05-09T21:48:33.052Z,98836.03
2023-05-09T21:51:27.646Z,98833.84
2023-05-09T21:54:17.013Z,98835.75
2023-05-09T21:57:15.830Z,98814.31
2023-05-09T22:00:19.614Z,98835.75
2023-05-09T22:03:13.281Z,98819.66
2023-05-09T22:06:17.376Z,98828.28
2023-05-09T22:09:09.352Z,98827.88
2023-05-09T22:12:14.562Z,98825.56
2023-05-09T22:15:17.278Z,98820.75
2023-05-09T22:18:18.174Z,98825.38
2023-05-09T22:21:23.363Z,98815.94
2023-05-09T22:24:16.998Z,98821.16
2023-05-09T22:27:05.599Z,98826.47
2023-05-09T22:30:04.098Z,98829.50
2023-05-09T22:33:13.038Z,98816.56
2023-05-09T22:36:08.960Z,98823.63
2023-05-09T22:39:14.755Z,98822.88
2023-05-09T22:42:27.577Z,98820.50
2023-05-09T22:45:26.568Z,98826.94
2023-05-09T22:48:24.085Z,98833.22
2023-05-09T22:51:15.390Z,98828.66
2023-05-09T22:54:15.951Z,98830.38
2023-05-09T22:57:04.655Z,98839.63
2023-05-09T22:59:54.213Z,98837.09
2023-05-09T23:02:51.847Z,98840.91
2023-05-09T23:05:50.092Z,98848.72
2023-05-09T23:08:39.677Z,98873.09
2023-05-09T23:11:38.750Z,98852.94
2023-05-09T23:14:30.168Z,98861.34
2023-05-09T23:17:19.197Z,98860.06
2023-05-09T23:20:26.688Z,98867.53
2023-05-09T23:23:46.903Z,98864.44
2023-05-09T23:26:41.157Z,98864.63
2023-05-09T23:29:57.346Z,98875.41
2023-05-09T23:32:47.067Z,98864.66
2023-05-09T23:35:45.382Z,98875.56
2023-05-09T23:38:55.333Z,98869.06
2023-05-09T23:41:55.514Z,98878.63
2023-05-09T23:45:02.784Z,98880.41
2023-05-09T23:48:07.910Z,98879.00
2023-05-09T23:51:06.202Z,98881.16
2023-05-09T23:54:03.599Z,98883.16
2023-05-09T23:56:57.714Z,98875.59
2023-05-09T23:59:56.638Z,98883.41
